Terminal Aerodrome Forecast
Issued by NWS

Home | Current Version | Previous Version | Text Only | Print | Product List | Glossary On
Versions: 1 2 3 4 5 6 7 8 9 10 11 12 13 14
000
FTUS41 KPBZ 272327
TAFLBE
TAF
KLBE 272327Z 2800/2824 VRB03KT P6SM BKN070
     FM280300 00000KT P6SM SCT070
     FM280800 00000KT 3SM BR SKC
     FM281300 VRB03KT P6SM SKC
      AMD NOT SKED 2802/2811=

USA.gov is the U.S. government's official web portal to all federal, state and local government web resources and services.